Aeroporto :
LOGIN :

Iscrizione | Disclaimer

   EN    FR    IT 

 










Sommario :    VFR   VFR Marginale   IFR   IFR Intensivo   IFR Molto Intensivo
Visibilità : 
Base nubi : 
>= 8 km
>= 3000ft
5 / 8 km
1000 / 3000 ft
1500m / 5 km
500 / 1000 ft
800 / 1500m
200 / 500 ft
< 800m
< 200 ft
Simboli :   Temporali  Nebbia  Neve Forte  Precipitazioni Forti  Vento > 20 kt
SIGMETs :   Varie  Temporali  Ghiacco  Turbolenza  Onda orograficha  Ceneri Vulcaniche







- Altitudine del aeroporto : 56 ft
- Codice IATA : ILY
- Carte del aeroporto


EGPI - Islay

ULTIMO METAR :
  • 222120Z AUTO 14008KT 100V180 9999 NCD 14/05 Q1001

METARs OBSOLETI :
  • 222050Z AUTO 15008KT 110V180 9999 NCD 14/05 Q1001
  • 222020Z AUTO 14009KT 110V190 9999 NCD 15/06 Q1001
  • 221950Z AUTO 14010KT 9999 NCD 13/06 Q1001
  • 221920Z AUTO 13010KT 9000 NCD 13/07 Q1001
  • 221850Z AUTO 13010KT 9999 NCD 14/07 Q1001

Previsioni scadute.
Nessun NOTAM noto per questo aeroporto.



MetMap, La meteo Aeronautica in un colpo d'occhio ! - Copyright ORBIFLY Dicembre 2007 - Disclaimer

ORBIFLY MET'MAP TEAM :

Programmazione e sviluppo : Alexandra Zaïnal
Concezione e sviluppo : Baudouin d'Aumeries
Co-Programmazione e sviluppo : Marc-Olivier Méhu
Supporto tecnico e logistico : Manuel Goepfert
Aiuto per la traduzione : Arnaldo La Scala

Contatto : metmap@orbifly.com




FONTI E CREDITI :

   NOAA